createdAt,value
2022-07-31T00:01:41.326Z,6.47
2022-07-31T00:04:11.621Z,6.57
2022-07-31T00:06:41.244Z,6.65
2022-07-31T00:09:52.818Z,6.70
2022-07-31T00:11:59.273Z,7.38
2022-07-31T00:14:29.311Z,6.50
2022-07-31T00:16:58.449Z,6.22
2022-07-31T00:19:28.802Z,6.80
2022-07-31T00:21:58.590Z,5.97
2022-07-31T00:24:30.136Z,5.90
2022-07-31T00:26:59.141Z,6.90
2022-07-31T00:29:27.966Z,6.38
2022-07-31T00:31:56.857Z,6.07
2022-07-31T00:34:25.761Z,5.78
2022-07-31T00:36:55.981Z,6.15
2022-07-31T00:39:25.155Z,6.63
2022-07-31T00:41:54.951Z,6.43
2022-07-31T00:44:24.060Z,5.97
2022-07-31T00:46:53.979Z,6.88
2022-07-31T00:49:23.197Z,6.13
2022-07-31T00:51:52.141Z,6.38
2022-07-31T00:54:23.253Z,6.30
2022-07-31T00:56:53.421Z,6.30
2022-07-31T00:59:24.763Z,6.20
2022-07-31T01:01:53.980Z,6.57
2022-07-31T01:04:22.947Z,6.78
2022-07-31T01:06:51.905Z,6.95
2022-07-31T01:09:22.161Z,7.15
2022-07-31T01:12:01.781Z,7.15
2022-07-31T01:14:36.701Z,7.47
2022-07-31T01:17:10.609Z,6.78
2022-07-31T01:19:44.502Z,7.15
2022-07-31T01:22:43.734Z,7.55
2022-07-31T01:25:34.099Z,7.10
2022-07-31T01:28:31.354Z,7.80
2022-07-31T01:31:26.856Z,8.32
2022-07-31T01:34:31.645Z,6.63
2022-07-31T01:37:28.754Z,7.32
2022-07-31T01:40:05.581Z,7.20
2022-07-31T01:42:40.580Z,7.18
2022-07-31T01:45:14.375Z,7.50
2022-07-31T01:47:46.940Z,6.40
2022-07-31T01:53:10.082Z,7.25
2022-07-31T01:55:56.691Z,7.13
2022-07-31T01:58:37.424Z,7.90
2022-07-31T02:01:11.455Z,7.18
2022-07-31T02:03:45.396Z,7.50
2022-07-31T02:06:20.500Z,6.25
2022-07-31T02:08:53.256Z,7.05
2022-07-31T02:11:22.936Z,6.75
2022-07-31T02:13:54.499Z,6.97
2022-07-31T02:16:30.693Z,7.22
2022-07-31T02:19:03.384Z,7.18
2022-07-31T02:21:33.181Z,7.50
2022-07-31T02:24:02.686Z,7.80
2022-07-31T02:26:34.623Z,7.22
2022-07-31T02:29:05.604Z,7.50
2022-07-31T02:31:39.162Z,7.93
2022-07-31T02:34:09.609Z,6.90
2022-07-31T02:36:39.867Z,7.55
2022-07-31T02:39:12.935Z,7.65
2022-07-31T02:41:42.985Z,7.70
2022-07-31T02:44:14.474Z,7.05
2022-07-31T02:46:45.724Z,6.97
2022-07-31T02:49:19.574Z,7.07
2022-07-31T02:51:49.515Z,7.38
2022-07-31T02:54:22.414Z,7.25
2022-07-31T02:56:52.364Z,7.43
2022-07-31T02:59:22.131Z,7.60
2022-07-31T03:01:51.457Z,6.95
2022-07-31T03:04:21.949Z,7.82
2022-07-31T03:06:51.893Z,6.18
2022-07-31T03:09:21.290Z,7.40
2022-07-31T03:11:51.198Z,6.30
2022-07-31T03:14:21.729Z,6.75
2022-07-31T03:16:56.636Z,6.25
2022-07-31T03:19:30.591Z,5.93
2022-07-31T03:22:02.067Z,6.50
2022-07-31T03:24:32.162Z,6.40
2022-07-31T03:27:03.088Z,6.32
2022-07-31T03:29:42.714Z,6.55
2022-07-31T03:32:12.622Z,6.85
2022-07-31T03:34:43.116Z,6.30
2022-07-31T03:37:12.082Z,6.30
2022-07-31T03:39:41.521Z,6.97
2022-07-31T03:42:13.101Z,7.15
2022-07-31T03:44:50.432Z,7.50
2022-07-31T03:47:19.565Z,7.03
2022-07-31T03:49:50.873Z,7.18
2022-07-31T03:52:19.961Z,7.18
2022-07-31T03:54:49.146Z,7.75
2022-07-31T03:57:19.914Z,7.18
2022-07-31T03:59:51.267Z,6.70
2022-07-31T04:02:20.921Z,7.30
2022-07-31T04:04:53.826Z,7.22
2022-07-31T04:07:23.738Z,7.30
2022-07-31T04:09:53.309Z,5.57
2022-07-31T04:12:22.689Z,5.93
2022-07-31T04:14:54.729Z,7.70
2022-07-31T04:17:23.701Z,5.93
2022-07-31T04:19:54.649Z,6.85
2022-07-31T04:22:23.647Z,6.43
2022-07-31T04:24:52.825Z,6.97
2022-07-31T04:27:21.972Z,7.63
2022-07-31T04:29:50.981Z,7.70
2022-07-31T04:32:24.123Z,6.72
2022-07-31T04:34:57.862Z,7.70
2022-07-31T04:37:26.824Z,7.43
2022-07-31T04:39:56.481Z,6.20
2022-07-31T04:42:25.582Z,6.63
2022-07-31T04:44:54.581Z,7.90
2022-07-31T04:47:23.792Z,8.38
2022-07-31T04:49:52.687Z,8.15
2022-07-31T04:52:23.051Z,6.97
2022-07-31T04:54:52.334Z,7.80
2022-07-31T04:57:22.251Z,8.43
2022-07-31T05:00:00.077Z,7.60
2022-07-31T05:02:30.282Z,8.35
2022-07-31T05:05:02.664Z,8.60
2022-07-31T05:07:36.220Z,8.02
2022-07-31T05:10:06.814Z,9.15
2022-07-31T05:12:35.961Z,8.80
2022-07-31T05:15:06.333Z,7.70
2022-07-31T05:17:35.250Z,9.23
2022-07-31T05:20:04.571Z,9.05
2022-07-31T05:22:34.854Z,9.00
2022-07-31T05:25:05.545Z,9.43
2022-07-31T05:27:38.916Z,9.55
2022-07-31T05:30:09.939Z,9.02
2022-07-31T05:32:38.804Z,9.95
2022-07-31T05:35:08.760Z,8.93
2022-07-31T05:37:40.088Z,10.05
2022-07-31T05:40:13.972Z,9.93
2022-07-31T05:42:43.189Z,7.47
2022-07-31T05:45:12.453Z,8.10
2022-07-31T05:47:41.455Z,10.40
2022-07-31T05:50:11.688Z,9.02
2022-07-31T05:52:42.715Z,10.98
2022-07-31T05:55:11.703Z,10.98
2022-07-31T05:57:40.651Z,10.05
2022-07-31T06:00:11.347Z,9.63
2022-07-31T06:02:41.037Z,8.90
2022-07-31T06:05:15.013Z,9.68
2022-07-31T06:07:51.953Z,8.60
2022-07-31T06:10:21.592Z,9.52
2022-07-31T06:12:51.032Z,8.77
2022-07-31T06:15:20.465Z,10.77
2022-07-31T06:17:49.491Z,10.90
2022-07-31T06:20:18.637Z,10.52
2022-07-31T06:22:50.847Z,10.55
2022-07-31T06:25:22.569Z,9.35
2022-07-31T06:27:55.100Z,10.25
2022-07-31T06:30:29.350Z,9.50
2022-07-31T06:32:58.540Z,8.52
2022-07-31T06:35:27.849Z,8.82
2022-07-31T06:37:58.596Z,9.40
2022-07-31T06:40:27.998Z,9.60
2022-07-31T06:42:57.549Z,11.93
2022-07-31T06:45:49.854Z,17.13
2022-07-31T06:48:16.118Z,11.40
2022-07-31T06:50:45.057Z,9.88
2022-07-31T06:53:15.790Z,10.13
2022-07-31T06:55:45.478Z,8.65
2022-07-31T06:58:14.880Z,8.57
2022-07-31T07:00:44.206Z,8.82
2022-07-31T07:03:13.406Z,7.88
2022-07-31T07:05:45.371Z,8.85
2022-07-31T07:10:45.295Z,10.25
2022-07-31T07:13:15.241Z,10.32
2022-07-31T07:15:44.516Z,10.27
2022-07-31T07:18:13.645Z,9.07
2022-07-31T07:20:43.284Z,7.28
2022-07-31T07:23:12.491Z,9.32
2022-07-31T07:25:45.508Z,8.25
2022-07-31T07:28:30.065Z,11.23
2022-07-31T07:31:02.516Z,11.25
2022-07-31T07:33:39.541Z,12.43
2022-07-31T07:36:23.208Z,9.23
2022-07-31T07:41:27.061Z,7.53
2022-07-31T07:43:56.396Z,7.50
2022-07-31T07:46:26.282Z,8.60
2022-07-31T07:48:56.028Z,8.95
2022-07-31T07:51:30.456Z,8.60
2022-07-31T07:56:29.652Z,10.60
2022-07-31T07:58:58.773Z,12.40
2022-07-31T08:01:28.341Z,11.57
2022-07-31T08:03:57.414Z,12.25
2022-07-31T08:06:26.374Z,5.65
2022-07-31T08:08:56.062Z,5.63
2022-07-31T08:11:25.154Z,4.95
2022-07-31T08:13:56.039Z,5.90
2022-07-31T08:16:39.281Z,5.88
2022-07-31T08:19:10.483Z,4.63
2022-07-31T08:21:40.303Z,4.57
2022-07-31T08:24:12.644Z,5.55
2022-07-31T08:27:03.691Z,4.63
2022-07-31T08:29:51.828Z,4.82
2022-07-31T08:32:23.539Z,5.35
2022-07-31T08:34:53.246Z,5.05
2022-07-31T08:37:51.678Z,7.85
2022-07-31T08:40:14.085Z,7.18
2022-07-31T08:42:47.590Z,7.82
2022-07-31T08:45:18.078Z,6.75
2022-07-31T08:47:50.051Z,5.57
2022-07-31T08:52:51.221Z,5.50
2022-07-31T08:55:55.031Z,4.50
2022-07-31T09:00:48.166Z,5.28
2022-07-31T09:03:21.567Z,4.00
2022-07-31T09:05:50.652Z,4.78
2022-07-31T09:08:19.997Z,5.63
2022-07-31T09:10:50.397Z,6.00
2022-07-31T09:13:22.789Z,5.07
2022-07-31T09:15:58.591Z,4.47
2022-07-31T09:18:28.223Z,3.85
2022-07-31T09:20:59.236Z,3.10
2022-07-31T09:23:29.939Z,2.92
2022-07-31T09:26:05.174Z,3.20
2022-07-31T09:28:36.523Z,3.17
2022-07-31T09:31:08.627Z,3.15
2022-07-31T09:33:45.345Z,2.90
2022-07-31T09:36:15.914Z,2.60
2022-07-31T09:38:45.920Z,3.00
2022-07-31T09:41:56.565Z,3.15
2022-07-31T09:44:09.718Z,3.10
2022-07-31T09:46:46.391Z,2.60
2022-07-31T09:49:16.329Z,2.70
2022-07-31T09:51:48.299Z,3.03
2022-07-31T09:54:24.567Z,2.90
2022-07-31T09:56:53.936Z,3.40
2022-07-31T09:59:23.862Z,3.53
2022-07-31T10:01:55.740Z,3.45
2022-07-31T10:04:25.366Z,3.75
2022-07-31T10:06:55.352Z,3.55
2022-07-31T10:09:26.692Z,3.28
2022-07-31T10:14:29.425Z,2.92
2022-07-31T10:17:04.807Z,2.72
2022-07-31T10:19:38.558Z,2.70
2022-07-31T10:22:09.779Z,2.28
2022-07-31T10:24:49.373Z,2.60
2022-07-31T10:27:19.437Z,2.33
2022-07-31T10:29:50.435Z,1.88
2022-07-31T10:32:22.170Z,2.40
2022-07-31T10:34:54.089Z,3.85
2022-07-31T10:37:32.863Z,2.47
2022-07-31T10:40:08.476Z,2.35
2022-07-31T10:42:45.474Z,2.38
2022-07-31T10:45:16.572Z,2.60
2022-07-31T10:47:57.398Z,2.63
2022-07-31T10:50:29.548Z,2.47
2022-07-31T10:53:10.222Z,2.83
2022-07-31T10:55:39.689Z,3.15
2022-07-31T10:58:10.815Z,2.72
2022-07-31T11:00:40.448Z,3.55
2022-07-31T11:03:21.954Z,3.42
2022-07-31T11:06:02.002Z,3.58
2022-07-31T11:08:44.241Z,3.47
2022-07-31T11:11:15.181Z,2.60
2022-07-31T11:13:51.634Z,2.28
2022-07-31T11:16:21.202Z,2.08
2022-07-31T11:19:01.893Z,1.92
2022-07-31T11:21:39.510Z,1.83
2022-07-31T11:24:17.620Z,2.10
2022-07-31T11:26:51.582Z,2.15
2022-07-31T11:30:00.380Z,1.90
2022-07-31T11:32:24.839Z,2.00
2022-07-31T11:34:58.839Z,2.17
2022-07-31T11:37:46.140Z,2.00
2022-07-31T11:40:22.149Z,2.33
2022-07-31T11:43:23.242Z,2.40
2022-07-31T11:45:49.879Z,2.30
2022-07-31T11:48:21.369Z,2.20
2022-07-31T11:50:52.491Z,2.35
2022-07-31T11:53:22.798Z,1.70
2022-07-31T11:55:55.201Z,2.30
2022-07-31T11:58:26.743Z,2.35
2022-07-31T12:00:59.518Z,2.65
2022-07-31T12:03:36.513Z,2.30
2022-07-31T12:06:10.024Z,2.20
2022-07-31T12:08:40.523Z,2.20
2022-07-31T12:11:10.862Z,2.47
2022-07-31T12:13:41.931Z,2.58
2022-07-31T12:16:12.009Z,2.17
2022-07-31T12:18:49.557Z,2.05
2022-07-31T12:21:31.167Z,3.08
2022-07-31T12:26:31.753Z,3.03
2022-07-31T12:29:02.197Z,3.38
2022-07-31T12:31:44.693Z,3.53
2022-07-31T12:34:14.249Z,4.25
2022-07-31T12:36:44.798Z,2.75
2022-07-31T12:39:13.856Z,3.08
2022-07-31T12:41:44.132Z,2.78
2022-07-31T12:44:14.750Z,3.10
2022-07-31T12:46:43.788Z,3.03
2022-07-31T12:49:13.023Z,2.30
2022-07-31T12:51:46.128Z,2.47
2022-07-31T12:54:17.282Z,2.28
2022-07-31T12:56:47.660Z,2.28
2022-07-31T12:59:16.606Z,1.92
2022-07-31T13:01:45.574Z,2.55
2022-07-31T13:04:18.674Z,2.15
2022-07-31T13:06:51.615Z,1.90
2022-07-31T13:09:21.206Z,1.95
2022-07-31T13:11:54.530Z,2.13
2022-07-31T13:14:26.771Z,2.17
2022-07-31T13:16:57.398Z,3.28
2022-07-31T13:19:27.314Z,2.22
2022-07-31T13:21:57.853Z,1.98
2022-07-31T13:24:26.976Z,1.90
2022-07-31T13:26:58.723Z,2.15
2022-07-31T13:29:27.794Z,2.08
2022-07-31T13:31:57.037Z,2.55
2022-07-31T13:34:28.110Z,2.33
2022-07-31T13:37:00.889Z,2.20
2022-07-31T13:39:29.916Z,1.85
2022-07-31T13:41:58.873Z,2.20
2022-07-31T13:44:28.261Z,2.40
2022-07-31T13:46:57.087Z,2.20
2022-07-31T13:49:29.571Z,2.20
2022-07-31T13:52:00.703Z,2.10
2022-07-31T13:54:30.092Z,2.60
2022-07-31T13:56:58.966Z,2.35
2022-07-31T13:59:29.213Z,2.08
2022-07-31T14:02:03.580Z,2.78
2022-07-31T14:04:38.675Z,2.20
2022-07-31T14:07:10.074Z,2.28
2022-07-31T14:09:54.863Z,2.42
2022-07-31T14:12:25.277Z,2.35
2022-07-31T14:14:54.164Z,2.22
2022-07-31T14:17:23.879Z,2.33
2022-07-31T14:19:54.433Z,2.70
2022-07-31T14:22:24.695Z,2.00
2022-07-31T14:24:56.569Z,2.22
2022-07-31T14:27:25.594Z,2.17
2022-07-31T14:29:54.602Z,2.47
2022-07-31T14:32:24.135Z,2.60
2022-07-31T14:34:54.246Z,2.88
2022-07-31T14:37:24.862Z,2.55
2022-07-31T14:39:53.999Z,2.58
2022-07-31T14:42:25.628Z,2.25
2022-07-31T14:44:56.339Z,2.10
2022-07-31T14:47:28.159Z,2.08
2022-07-31T14:50:06.923Z,2.10
2022-07-31T14:52:40.429Z,2.40
2022-07-31T14:55:10.769Z,2.55
2022-07-31T14:57:39.887Z,2.45
2022-07-31T15:00:13.072Z,2.60
2022-07-31T15:02:43.083Z,2.15
2022-07-31T15:06:41.794Z,2.13
2022-07-31T15:08:03.895Z,2.33
2022-07-31T15:10:33.297Z,2.20
2022-07-31T15:13:02.429Z,1.88
2022-07-31T15:15:33.783Z,1.75
2022-07-31T15:18:02.836Z,1.80
2022-07-31T15:20:33.182Z,1.85
2022-07-31T15:23:04.445Z,2.05
2022-07-31T15:25:33.798Z,2.00
2022-07-31T15:28:02.713Z,2.15
2022-07-31T15:30:31.740Z,2.22
2022-07-31T15:33:00.701Z,2.00
2022-07-31T15:35:29.986Z,2.13
2022-07-31T15:37:59.533Z,2.28
2022-07-31T15:40:30.093Z,2.00
2022-07-31T15:43:00.455Z,1.88
2022-07-31T15:45:29.607Z,2.33
2022-07-31T15:47:58.526Z,2.03
2022-07-31T15:50:27.359Z,2.00
2022-07-31T15:52:56.216Z,1.85
2022-07-31T15:55:25.078Z,2.00
2022-07-31T15:57:55.661Z,3.35
2022-07-31T16:00:25.743Z,2.63
2022-07-31T16:02:54.788Z,5.15
2022-07-31T16:05:35.972Z,3.90
2022-07-31T16:08:30.361Z,12.88
2022-07-31T16:10:57.142Z,7.18
2022-07-31T16:13:27.445Z,3.65
2022-07-31T16:15:56.403Z,4.05
2022-07-31T16:18:25.314Z,4.28
2022-07-31T16:20:54.157Z,3.65
2022-07-31T16:23:25.649Z,3.20
2022-07-31T16:28:23.516Z,3.78
2022-07-31T16:30:53.685Z,3.38
2022-07-31T16:33:23.373Z,2.72
2022-07-31T16:35:52.479Z,3.20
2022-07-31T16:38:21.402Z,3.58
2022-07-31T16:40:53.423Z,3.30
2022-07-31T16:43:48.771Z,3.53
2022-07-31T16:46:13.128Z,3.13
2022-07-31T16:48:42.179Z,3.30
2022-07-31T16:51:11.185Z,2.17
2022-07-31T16:54:13.550Z,3.10
2022-07-31T16:56:28.927Z,3.10
2022-07-31T16:58:59.293Z,2.28
2022-07-31T17:01:58.549Z,2.30
2022-07-31T17:04:18.985Z,2.42
2022-07-31T17:06:48.265Z,2.10
2022-07-31T17:09:18.569Z,2.08
2022-07-31T17:11:50.147Z,2.08
2022-07-31T17:14:21.426Z,2.00
2022-07-31T17:16:53.911Z,1.95
2022-07-31T17:19:41.235Z,2.25
2022-07-31T17:22:17.489Z,2.33
2022-07-31T17:24:50.895Z,2.33
2022-07-31T17:27:21.725Z,2.30
2022-07-31T17:29:52.477Z,2.35
2022-07-31T17:32:22.818Z,2.20
2022-07-31T17:34:54.281Z,2.42
2022-07-31T17:37:24.563Z,2.30
2022-07-31T17:39:56.282Z,2.22
2022-07-31T17:42:27.184Z,2.28
2022-07-31T17:44:58.780Z,2.20
2022-07-31T17:47:30.089Z,2.15
2022-07-31T17:49:58.963Z,1.98
2022-07-31T17:52:28.027Z,2.03
2022-07-31T17:54:57.211Z,2.35
2022-07-31T17:57:29.348Z,2.22
2022-07-31T17:59:59.082Z,1.95
2022-07-31T18:02:29.574Z,2.10
2022-07-31T18:04:58.656Z,1.80
2022-07-31T18:07:28.400Z,2.10
2022-07-31T18:09:57.302Z,2.47
2022-07-31T18:12:26.356Z,2.45
2022-07-31T18:14:55.319Z,2.22
2022-07-31T18:17:24.268Z,2.10
2022-07-31T18:19:54.531Z,2.22
2022-07-31T18:22:26.938Z,2.38
2022-07-31T18:25:04.549Z,2.90
2022-07-31T18:27:33.633Z,2.95
2022-07-31T18:30:03.698Z,3.20
2022-07-31T18:32:34.701Z,2.65
2022-07-31T18:35:06.663Z,2.63
2022-07-31T18:37:35.935Z,2.83
2022-07-31T18:40:06.459Z,3.30
2022-07-31T18:42:35.715Z,2.65
2022-07-31T18:45:06.458Z,2.78
2022-07-31T18:47:35.571Z,2.30
2022-07-31T18:51:01.112Z,2.90
2022-07-31T18:52:55.961Z,2.30
2022-07-31T18:55:24.899Z,2.00
2022-07-31T18:57:53.731Z,2.60
2022-07-31T19:00:22.703Z,2.25
2022-07-31T19:02:52.325Z,2.25
2022-07-31T19:05:22.879Z,2.55
2022-07-31T19:07:52.110Z,2.28
2022-07-31T19:10:29.251Z,2.10
2022-07-31T19:12:59.837Z,3.15
2022-07-31T19:15:29.326Z,2.70
2022-07-31T19:17:58.452Z,4.35
2022-07-31T19:20:51.759Z,7.75
2022-07-31T19:23:19.143Z,8.68
2022-07-31T19:26:03.072Z,9.30
2022-07-31T19:28:33.405Z,9.25
2022-07-31T19:31:03.437Z,7.10
2022-07-31T19:33:32.670Z,3.97
2022-07-31T19:36:03.496Z,2.90
2022-07-31T19:38:36.839Z,2.65
2022-07-31T19:41:05.920Z,2.42
2022-07-31T19:43:35.707Z,2.30
2022-07-31T19:46:12.341Z,2.50
2022-07-31T19:48:43.949Z,2.20
2022-07-31T19:51:16.120Z,2.37
2022-07-31T19:53:46.317Z,2.70
2022-07-31T19:56:20.357Z,2.70
2022-07-31T19:58:51.174Z,2.40
2022-07-31T20:01:21.642Z,2.40
2022-07-31T20:03:53.254Z,2.40
2022-07-31T20:06:23.861Z,2.53
2022-07-31T20:08:59.554Z,2.50
2022-07-31T20:11:28.580Z,2.75
2022-07-31T20:13:58.006Z,2.65
2022-07-31T20:16:27.744Z,2.60
2022-07-31T20:18:57.004Z,2.72
2022-07-31T20:21:27.399Z,3.10
2022-07-31T20:24:04.049Z,3.03
2022-07-31T20:26:36.393Z,3.63
2022-07-31T20:29:05.814Z,3.47
2022-07-31T20:31:35.340Z,3.17
2022-07-31T20:34:04.579Z,4.07
2022-07-31T20:36:34.940Z,4.07
2022-07-31T20:39:04.190Z,3.78
2022-07-31T20:41:34.344Z,3.80
2022-07-31T20:44:03.396Z,4.03
2022-07-31T20:46:32.931Z,4.00
2022-07-31T20:49:01.934Z,3.92
2022-07-31T20:51:31.004Z,4.03
2022-07-31T20:54:01.762Z,4.47
2022-07-31T20:56:32.921Z,4.38
2022-07-31T20:59:01.850Z,4.47
2022-07-31T21:01:30.751Z,4.80
2022-07-31T21:03:59.783Z,4.60
2022-07-31T21:06:28.720Z,4.15
2022-07-31T21:08:57.559Z,3.72
2022-07-31T21:11:31.539Z,3.42
2022-07-31T21:14:01.389Z,3.15
2022-07-31T21:16:30.594Z,3.20
2022-07-31T21:18:59.514Z,2.95
2022-07-31T21:21:28.354Z,3.42
2022-07-31T21:24:00.644Z,2.92
2022-07-31T21:26:33.174Z,2.97
2022-07-31T21:29:02.928Z,3.15
2022-07-31T21:31:32.055Z,3.58
2022-07-31T21:34:01.643Z,2.95
2022-07-31T21:36:31.232Z,3.88
2022-07-31T21:39:00.924Z,3.60
2022-07-31T21:41:31.996Z,3.88
2022-07-31T21:44:01.602Z,3.63
2022-07-31T21:46:33.841Z,3.92
2022-07-31T21:49:03.877Z,3.85
2022-07-31T21:51:33.687Z,3.88
2022-07-31T21:54:02.722Z,4.18
2022-07-31T21:56:33.288Z,4.10
2022-07-31T21:59:02.104Z,4.18
2022-07-31T22:01:31.042Z,4.07
2022-07-31T22:04:00.242Z,4.22
2022-07-31T22:06:46.701Z,4.32
2022-07-31T22:09:16.217Z,4.63
2022-07-31T22:11:54.925Z,4.90
2022-07-31T22:14:29.052Z,4.07
2022-07-31T22:16:59.093Z,5.00
2022-07-31T22:19:29.094Z,5.47
2022-07-31T22:21:58.739Z,4.75
2022-07-31T22:24:28.394Z,5.70
2022-07-31T22:27:17.051Z,4.70
2022-07-31T22:29:47.240Z,5.80
2022-07-31T22:32:16.341Z,4.20
2022-07-31T22:34:45.433Z,4.55
2022-07-31T22:37:16.571Z,4.82
2022-07-31T22:39:47.593Z,4.53
2022-07-31T22:42:18.058Z,4.30
2022-07-31T22:44:48.973Z,5.22
2022-07-31T22:47:18.806Z,6.47
2022-07-31T22:49:48.265Z,6.40
2022-07-31T22:52:17.398Z,6.45
2022-07-31T22:54:46.809Z,5.63
2022-07-31T22:57:18.346Z,5.28
2022-07-31T22:59:48.743Z,6.18
2022-07-31T23:02:18.219Z,4.57
2022-07-31T23:04:47.399Z,4.57
2022-07-31T23:07:16.311Z,4.53
2022-07-31T23:09:47.213Z,4.30
2022-07-31T23:12:17.439Z,3.60
2022-07-31T23:14:46.308Z,3.78
2022-07-31T23:17:22.346Z,3.83
2022-07-31T23:19:54.175Z,4.47
2022-07-31T23:22:30.917Z,3.88
2022-07-31T23:25:03.257Z,3.90
2022-07-31T23:27:34.087Z,3.53
2022-07-31T23:30:03.158Z,3.35
2022-07-31T23:32:32.079Z,3.58
2022-07-31T23:35:01.022Z,3.60
2022-07-31T23:37:30.061Z,3.30
2022-07-31T23:39:58.971Z,3.30
2022-07-31T23:42:39.048Z,3.90
2022-07-31T23:45:13.890Z,4.10
2022-07-31T23:47:46.878Z,4.70
2022-07-31T23:50:17.642Z,4.50
2022-07-31T23:52:46.862Z,4.28
2022-07-31T23:55:16.240Z,4.65
2022-07-31T23:57:47.417Z,4.72
